createdAt,value
2022-08-08T00:02:04.069Z,16.09
2022-08-08T00:04:49.181Z,15.97
2022-08-08T00:07:28.555Z,15.97
2022-08-08T00:10:13.405Z,15.93
2022-08-08T00:14:15.211Z,15.92
2022-08-08T00:16:16.532Z,15.87
2022-08-08T00:18:55.021Z,15.94
2022-08-08T00:21:39.538Z,15.85
2022-08-08T00:24:35.728Z,15.79
2022-08-08T00:27:07.747Z,15.83
2022-08-08T00:29:44.883Z,15.84
2022-08-08T00:32:38.406Z,15.84
2022-08-08T00:35:22.650Z,15.75
2022-08-08T00:38:44.336Z,15.83
2022-08-08T00:42:08.409Z,15.83
2022-08-08T00:45:20.852Z,15.88
2022-08-08T00:48:29.946Z,15.87
2022-08-08T00:51:09.909Z,15.93
2022-08-08T00:54:15.563Z,15.86
2022-08-08T00:57:29.551Z,15.75
2022-08-08T01:00:06.458Z,15.80
2022-08-08T01:03:59.070Z,15.74
2022-08-08T01:06:13.145Z,15.75
2022-08-08T01:09:36.373Z,15.79
2022-08-08T01:12:25.627Z,15.78
2022-08-08T01:15:43.859Z,15.74
2022-08-08T01:18:25.003Z,15.66
2022-08-08T01:22:13.348Z,15.62
2022-08-08T01:24:34.387Z,15.68
2022-08-08T01:27:32.716Z,15.69
2022-08-08T01:30:22.641Z,15.66
2022-08-08T01:33:27.535Z,15.71
2022-08-08T01:36:27.212Z,15.73
2022-08-08T01:39:35.058Z,15.75
2022-08-08T01:42:20.152Z,15.69
2022-08-08T01:45:27.486Z,15.71
2022-08-08T01:48:30.793Z,15.83
2022-08-08T01:51:31.863Z,15.93
2022-08-08T01:55:16.306Z,15.95
2022-08-08T01:57:08.440Z,15.90
2022-08-08T02:00:05.098Z,15.99
2022-08-08T02:03:57.052Z,16.05
2022-08-08T02:06:31.592Z,16.13
2022-08-08T02:09:16.080Z,16.09
2022-08-08T02:11:59.991Z,16.18
2022-08-08T02:14:49.762Z,16.27
2022-08-08T02:17:42.646Z,16.20
2022-08-08T02:21:13.161Z,16.18
2022-08-08T02:24:16.208Z,16.37
2022-08-08T02:27:01.065Z,16.48
2022-08-08T02:29:57.277Z,16.34
2022-08-08T02:32:52.329Z,16.42
2022-08-08T02:35:19.630Z,16.53
2022-08-08T02:38:09.154Z,16.54
2022-08-08T02:40:50.080Z,16.60
2022-08-08T02:44:42.296Z,16.59
2022-08-08T02:46:54.822Z,16.53
2022-08-08T02:49:48.154Z,16.54
2022-08-08T02:52:39.841Z,16.51
2022-08-08T02:55:47.248Z,16.61
2022-08-08T02:58:44.552Z,16.62
2022-08-08T03:01:16.053Z,16.38
2022-08-08T03:05:04.758Z,16.45
2022-08-08T03:07:24.329Z,16.51
2022-08-08T03:10:33.672Z,16.59
2022-08-08T03:15:56.636Z,16.78
2022-08-08T03:16:35.756Z,16.82
2022-08-08T03:19:51.225Z,16.97
2022-08-08T03:22:38.133Z,16.85
2022-08-08T03:25:18.013Z,16.85
2022-08-08T03:27:59.784Z,16.73
2022-08-08T03:30:32.142Z,16.85
2022-08-08T03:33:58.137Z,16.90
2022-08-08T03:36:13.836Z,17.01
2022-08-08T03:38:55.007Z,17.08
2022-08-08T03:42:12.592Z,17.00
2022-08-08T03:44:32.607Z,17.04
2022-08-08T03:47:14.322Z,17.10
2022-08-08T03:50:00.513Z,17.23
2022-08-08T03:52:33.748Z,17.27
2022-08-08T03:55:10.290Z,17.20
2022-08-08T03:58:30.987Z,17.30
2022-08-08T04:00:30.463Z,17.28
2022-08-08T04:03:11.810Z,17.24
2022-08-08T04:05:49.915Z,17.32
2022-08-08T04:08:33.860Z,17.19
2022-08-08T04:11:23.607Z,17.33
2022-08-08T04:14:03.338Z,17.31
2022-08-08T04:16:41.726Z,17.34
2022-08-08T04:19:25.070Z,17.40
2022-08-08T04:21:58.270Z,17.30
2022-08-08T04:24:29.705Z,17.43
2022-08-08T04:27:01.091Z,17.44
2022-08-08T04:29:37.012Z,17.15
2022-08-08T04:32:08.209Z,17.15
2022-08-08T04:34:55.971Z,16.99
2022-08-08T04:37:32.244Z,17.09
2022-08-08T04:40:07.801Z,17.27
2022-08-08T04:42:55.856Z,17.38
2022-08-08T04:45:27.092Z,17.39
2022-08-08T04:47:58.673Z,17.37
2022-08-08T04:50:37.958Z,17.50
2022-08-08T04:53:14.268Z,17.64
2022-08-08T04:55:58.552Z,17.70
2022-08-08T04:58:30.313Z,17.71
2022-08-08T05:00:57.914Z,17.59
2022-08-08T05:04:11.360Z,17.56
2022-08-08T05:06:18.169Z,17.41
2022-08-08T05:08:51.575Z,17.38
2022-08-08T05:11:23.992Z,17.44
2022-08-08T05:14:00.922Z,17.67
2022-08-08T05:16:54.213Z,17.76
2022-08-08T05:20:10.355Z,17.72
2022-08-08T05:22:08.728Z,17.51
2022-08-08T05:24:41.435Z,17.59
2022-08-08T05:27:18.381Z,17.63
2022-08-08T05:29:50.383Z,17.65
2022-08-08T05:32:24.699Z,17.64
2022-08-08T05:35:04.581Z,17.70
2022-08-08T05:37:52.048Z,17.61
2022-08-08T05:40:28.243Z,17.72
2022-08-08T05:43:38.415Z,17.87
2022-08-08T05:46:04.007Z,17.68
2022-08-08T05:48:38.840Z,17.53
2022-08-08T05:51:14.689Z,17.76
2022-08-08T05:54:24.857Z,17.88
2022-08-08T05:56:42.407Z,18.06
2022-08-08T05:59:58.801Z,18.05
2022-08-08T06:02:43.616Z,18.21
2022-08-08T06:05:35.738Z,18.05
2022-08-08T06:08:09.547Z,18.13
2022-08-08T06:10:39.448Z,18.22
2022-08-08T06:13:09.328Z,18.32
2022-08-08T06:15:53.705Z,18.23
2022-08-08T06:18:45.039Z,18.09
2022-08-08T06:21:28.115Z,18.45
2022-08-08T06:24:02.624Z,18.67
2022-08-08T06:26:50.626Z,18.72
2022-08-08T06:29:59.322Z,18.76
2022-08-08T06:32:25.225Z,18.91
2022-08-08T06:35:11.832Z,19.13
2022-08-08T06:37:55.713Z,19.06
2022-08-08T06:40:32.021Z,19.15
2022-08-08T06:43:06.381Z,19.28
2022-08-08T06:45:43.779Z,19.33
2022-08-08T06:48:10.666Z,19.20
2022-08-08T06:50:41.567Z,19.61
2022-08-08T06:53:17.329Z,19.69
2022-08-08T06:56:02.836Z,20.01
2022-08-08T06:58:35.650Z,20.21
2022-08-08T07:01:52.604Z,20.36
2022-08-08T07:04:39.077Z,20.40
2022-08-08T07:07:10.555Z,20.63
2022-08-08T07:10:08.369Z,20.45
2022-08-08T07:13:06.403Z,20.48
2022-08-08T07:16:06.262Z,20.23
2022-08-08T07:18:57.442Z,20.61
2022-08-08T07:21:32.996Z,20.67
2022-08-08T07:24:09.527Z,20.73
2022-08-08T07:26:54.005Z,20.99
2022-08-08T07:30:00.494Z,21.01
2022-08-08T07:32:16.946Z,21.14
2022-08-08T07:34:59.245Z,21.23
2022-08-08T07:37:49.675Z,21.63
2022-08-08T07:40:28.981Z,21.39
2022-08-08T07:43:04.027Z,21.78
2022-08-08T07:46:05.240Z,21.87
2022-08-08T07:48:23.894Z,21.62
2022-08-08T07:50:53.874Z,22.08
2022-08-08T07:54:01.358Z,22.37
2022-08-08T07:56:17.564Z,21.94
2022-08-08T07:59:10.337Z,22.49
2022-08-08T08:02:36.536Z,22.71
2022-08-08T08:04:46.693Z,23.09
2022-08-08T08:07:18.296Z,23.10
2022-08-08T08:09:49.968Z,23.45
2022-08-08T08:12:31.728Z,23.26
2022-08-08T08:15:07.321Z,23.16
2022-08-08T08:17:55.740Z,23.13
2022-08-08T08:20:29.744Z,23.27
2022-08-08T08:22:58.581Z,23.49
2022-08-08T08:25:43.720Z,23.06
2022-08-08T08:28:17.049Z,23.54
2022-08-08T08:30:56.701Z,23.86
2022-08-08T08:33:26.360Z,23.97
2022-08-08T08:36:18.917Z,24.30
2022-08-08T08:38:49.636Z,24.46
2022-08-08T08:41:22.447Z,24.27
2022-08-08T08:43:53.059Z,24.29
2022-08-08T08:46:41.296Z,24.52
2022-08-08T08:49:14.777Z,24.73
2022-08-08T08:51:51.495Z,23.60
2022-08-08T08:54:25.396Z,24.06
2022-08-08T08:56:55.649Z,23.99
2022-08-08T08:59:57.548Z,24.03
2022-08-08T09:02:20.702Z,24.50
2022-08-08T09:04:55.250Z,24.49
2022-08-08T09:07:39.257Z,24.53
2022-08-08T09:10:17.509Z,24.73
2022-08-08T09:12:47.574Z,24.84
2022-08-08T09:15:18.643Z,24.63
2022-08-08T09:18:07.367Z,25.03
2022-08-08T09:22:01.479Z,24.43
2022-08-08T09:23:33.326Z,24.73
2022-08-08T09:26:24.788Z,24.87
2022-08-08T09:28:57.969Z,25.39
2022-08-08T09:31:57.570Z,25.57
2022-08-08T09:34:39.225Z,25.32
2022-08-08T09:37:58.508Z,25.39
2022-08-08T09:40:11.161Z,25.56
2022-08-08T09:42:44.150Z,25.52
2022-08-08T09:45:55.217Z,25.60
2022-08-08T09:48:16.062Z,25.52
2022-08-08T09:50:50.783Z,25.99
2022-08-08T09:53:24.973Z,25.66
2022-08-08T09:56:12.565Z,25.69
2022-08-08T09:59:32.017Z,25.99
2022-08-08T10:01:59.650Z,26.20
2022-08-08T10:04:38.325Z,26.34
2022-08-08T10:07:13.930Z,26.47
2022-08-08T10:09:59.578Z,26.74
2022-08-08T10:12:53.882Z,26.66
2022-08-08T10:15:35.999Z,27.00
2022-08-08T10:18:10.499Z,26.78
2022-08-08T10:20:58.303Z,26.06
2022-08-08T10:23:57.890Z,26.35
2022-08-08T10:26:59.142Z,26.95
2022-08-08T10:29:56.708Z,26.63
2022-08-08T10:32:57.530Z,26.88
2022-08-08T10:36:09.338Z,27.09
2022-08-08T10:38:20.318Z,26.91
2022-08-08T10:40:52.087Z,26.09
2022-08-08T10:43:20.901Z,26.66
2022-08-08T10:45:56.881Z,26.55
2022-08-08T10:48:57.912Z,26.57
2022-08-08T10:51:31.387Z,26.81
2022-08-08T10:54:07.733Z,27.23
2022-08-08T10:56:35.810Z,26.76
2022-08-08T10:59:12.261Z,27.52
2022-08-08T11:01:49.485Z,27.71
2022-08-08T11:04:39.277Z,27.41
2022-08-08T11:07:07.080Z,26.76
2022-08-08T11:09:34.896Z,26.91
2022-08-08T11:12:13.170Z,27.20
2022-08-08T11:14:57.084Z,26.11
2022-08-08T11:17:58.779Z,26.95
2022-08-08T11:20:23.699Z,25.60
2022-08-08T11:23:05.793Z,26.01
2022-08-08T11:25:53.481Z,25.27
2022-08-08T11:28:30.785Z,25.03
2022-08-08T11:31:04.012Z,24.73
2022-08-08T11:33:51.219Z,25.81
2022-08-08T11:36:20.582Z,25.77
2022-08-08T11:38:54.213Z,26.65
2022-08-08T11:41:27.686Z,27.00
2022-08-08T11:44:00.524Z,26.43
2022-08-08T11:46:31.400Z,25.78
2022-08-08T11:49:00.349Z,25.09
2022-08-08T11:51:30.268Z,25.52
2022-08-08T11:54:26.823Z,26.61
2022-08-08T11:56:56.642Z,26.46
2022-08-08T11:59:58.580Z,25.44
2022-08-08T12:02:40.189Z,25.91
2022-08-08T12:05:12.440Z,26.44
2022-08-08T12:07:52.283Z,26.27
2022-08-08T12:10:27.462Z,27.47
2022-08-08T12:13:01.548Z,27.53
2022-08-08T12:15:49.289Z,27.62
2022-08-08T12:18:24.681Z,28.15
2022-08-08T12:20:58.882Z,28.10
2022-08-08T12:23:43.948Z,27.80
2022-08-08T12:26:36.911Z,27.89
2022-08-08T12:29:40.817Z,27.56
2022-08-08T12:32:13.274Z,27.86
2022-08-08T12:34:48.761Z,28.14
2022-08-08T12:37:25.916Z,27.92
2022-08-08T12:40:22.423Z,28.42
2022-08-08T12:42:52.218Z,28.42
2022-08-08T12:45:54.722Z,27.90
2022-08-08T12:48:37.574Z,27.11
2022-08-08T12:51:07.690Z,27.44
2022-08-08T12:54:01.539Z,28.29
2022-08-08T12:56:38.395Z,27.99
2022-08-08T12:59:16.979Z,28.67
2022-08-08T13:02:20.960Z,29.38
2022-08-08T13:04:51.194Z,27.82
2022-08-08T13:08:03.710Z,27.18
2022-08-08T13:10:15.035Z,28.32
2022-08-08T13:12:48.249Z,27.66
2022-08-08T13:15:19.598Z,27.97
2022-08-08T13:18:07.554Z,28.32
2022-08-08T13:20:44.672Z,27.48
2022-08-08T13:23:36.524Z,27.14
2022-08-08T13:26:14.795Z,27.26
2022-08-08T13:28:45.479Z,28.48
2022-08-08T13:31:16.564Z,28.48
2022-08-08T13:33:47.385Z,28.41
2022-08-08T13:36:25.691Z,28.34
2022-08-08T13:38:54.153Z,28.28
2022-08-08T13:41:22.379Z,27.89
2022-08-08T13:43:50.966Z,29.44
2022-08-08T13:46:26.318Z,29.20
2022-08-08T13:50:32.187Z,29.02
2022-08-08T13:52:06.224Z,27.59
2022-08-08T13:54:43.978Z,27.30
2022-08-08T13:57:16.536Z,27.07
2022-08-08T13:59:49.183Z,27.97
2022-08-08T14:02:33.140Z,27.57
2022-08-08T14:05:20.400Z,26.55
2022-08-08T14:07:53.210Z,25.84
2022-08-08T14:10:33.450Z,25.72
2022-08-08T14:13:09.857Z,26.68
2022-08-08T14:15:39.782Z,26.91
2022-08-08T14:18:36.267Z,26.43
2022-08-08T14:21:12.567Z,25.99
2022-08-08T14:24:06.944Z,25.92
2022-08-08T14:26:33.546Z,25.95
2022-08-08T14:29:01.535Z,26.19
2022-08-08T14:31:36.704Z,26.07
2022-08-08T14:34:23.239Z,26.62
2022-08-08T14:36:54.822Z,26.63
2022-08-08T14:39:24.686Z,26.25
2022-08-08T14:42:03.250Z,25.28
2022-08-08T14:44:35.075Z,26.51
2022-08-08T14:47:20.902Z,26.30
2022-08-08T14:50:06.263Z,26.69
2022-08-08T14:52:41.465Z,26.89
2022-08-08T14:55:10.580Z,27.24
2022-08-08T14:58:06.517Z,27.81
2022-08-08T15:00:27.446Z,27.52
2022-08-08T15:02:58.518Z,27.24
2022-08-08T15:05:34.033Z,26.59
2022-08-08T15:08:21.736Z,26.89
2022-08-08T15:10:49.837Z,26.73
2022-08-08T15:13:17.390Z,27.37
2022-08-08T15:16:01.190Z,27.09
2022-08-08T15:18:30.216Z,26.86
2022-08-08T15:20:57.042Z,26.88
2022-08-08T15:23:23.851Z,26.36
2022-08-08T15:26:00.048Z,26.34
2022-08-08T15:28:33.848Z,26.77
2022-08-08T15:31:01.651Z,26.85
2022-08-08T15:33:38.357Z,26.27
2022-08-08T15:36:17.681Z,25.90
2022-08-08T15:38:50.576Z,26.92
2022-08-08T15:41:17.814Z,26.33
2022-08-08T15:44:00.853Z,26.65
2022-08-08T15:46:35.099Z,27.06
2022-08-08T15:49:04.149Z,27.12
2022-08-08T15:51:32.715Z,25.97
2022-08-08T15:54:00.594Z,26.15
2022-08-08T15:56:27.416Z,26.69
2022-08-08T15:58:54.265Z,26.89
2022-08-08T16:01:22.594Z,25.64
2022-08-08T16:03:51.978Z,25.35
2022-08-08T16:06:27.725Z,25.38
2022-08-08T16:13:00.026Z,25.42
2022-08-08T16:13:12.124Z,26.16
2022-08-08T16:14:36.191Z,25.13
2022-08-08T16:17:05.745Z,25.29
2022-08-08T16:19:59.784Z,26.03
2022-08-08T16:22:28.717Z,25.46
2022-08-08T16:24:58.498Z,25.40
2022-08-08T16:27:25.396Z,25.41
2022-08-08T16:30:13.667Z,26.01
2022-08-08T16:32:41.191Z,25.64
2022-08-08T16:35:08.691Z,24.93
2022-08-08T16:37:35.922Z,25.67
2022-08-08T16:40:04.138Z,25.62
2022-08-08T16:42:31.598Z,25.66
2022-08-08T16:45:11.164Z,24.66
2022-08-08T16:47:49.746Z,24.97
2022-08-08T16:50:20.015Z,24.49
2022-08-08T16:54:59.758Z,24.99
2022-08-08T16:55:55.710Z,25.20
2022-08-08T16:58:26.370Z,25.48
2022-08-08T17:00:54.797Z,25.08
2022-08-08T17:03:25.095Z,25.45
2022-08-08T17:06:36.889Z,24.84
2022-08-08T17:08:57.371Z,25.40
2022-08-08T17:11:28.214Z,24.98
2022-08-08T17:14:05.879Z,25.05
2022-08-08T17:16:51.902Z,24.57
2022-08-08T17:19:27.328Z,24.88
2022-08-08T17:21:54.676Z,24.94
2022-08-08T17:24:27.897Z,24.98
2022-08-08T17:26:57.928Z,24.26
2022-08-08T17:29:27.060Z,23.62
2022-08-08T17:31:54.064Z,24.27
2022-08-08T17:34:47.984Z,24.56
2022-08-08T17:37:11.176Z,24.66
2022-08-08T17:40:04.028Z,25.65
2022-08-08T17:42:28.297Z,25.28
2022-08-08T17:44:55.553Z,25.29
2022-08-08T17:47:27.676Z,24.21
2022-08-08T17:50:01.242Z,23.97
2022-08-08T17:52:35.320Z,24.21
2022-08-08T17:55:05.710Z,24.31
2022-08-08T17:57:36.442Z,23.71
2022-08-08T18:00:13.378Z,22.96
2022-08-08T18:03:02.132Z,23.32
2022-08-08T18:05:49.732Z,22.91
2022-08-08T18:08:37.516Z,22.43
2022-08-08T18:11:16.306Z,22.65
2022-08-08T18:13:48.175Z,21.96
2022-08-08T18:16:20.985Z,21.42
2022-08-08T18:18:57.651Z,22.04
2022-08-08T18:21:58.778Z,21.94
2022-08-08T18:24:21.454Z,22.01
2022-08-08T18:26:54.541Z,21.69
2022-08-08T18:29:30.286Z,21.31
2022-08-08T18:32:08.421Z,21.52
2022-08-08T18:34:40.361Z,21.52
2022-08-08T18:37:10.192Z,21.49
2022-08-08T18:39:45.073Z,21.49
2022-08-08T18:42:16.467Z,21.49
2022-08-08T18:44:52.961Z,21.33
2022-08-08T18:47:25.166Z,21.23
2022-08-08T18:49:57.795Z,21.35
2022-08-08T18:52:26.576Z,21.35
2022-08-08T18:54:59.669Z,21.29
2022-08-08T18:57:43.461Z,21.28
2022-08-08T19:00:15.783Z,21.24
2022-08-08T19:02:48.379Z,21.31
2022-08-08T19:05:24.535Z,21.27
2022-08-08T19:07:59.570Z,21.14
2022-08-08T19:10:27.425Z,21.31
2022-08-08T19:12:54.248Z,21.43
2022-08-08T19:15:23.849Z,21.05
2022-08-08T19:18:32.495Z,20.64
2022-08-08T19:20:46.461Z,20.65
2022-08-08T19:23:13.645Z,20.67
2022-08-08T19:26:19.716Z,20.59
2022-08-08T19:28:28.698Z,20.85
2022-08-08T19:31:03.606Z,20.54
2022-08-08T19:33:39.479Z,20.36
2022-08-08T19:36:27.448Z,20.14
2022-08-08T19:38:56.077Z,20.03
2022-08-08T19:41:31.390Z,20.04
2022-08-08T19:44:13.147Z,20.22
2022-08-08T19:46:50.152Z,20.11
2022-08-08T19:49:17.022Z,20.11
2022-08-08T19:51:45.532Z,20.40
2022-08-08T19:54:12.569Z,20.31
2022-08-08T19:56:41.463Z,20.23
2022-08-08T19:59:12.963Z,20.14
2022-08-08T20:02:02.381Z,20.40
2022-08-08T20:04:28.009Z,20.13
2022-08-08T20:06:57.098Z,20.18
2022-08-08T20:09:25.156Z,20.23
2022-08-08T20:11:56.954Z,20.11
2022-08-08T20:14:34.352Z,20.04
2022-08-08T20:17:02.717Z,20.20
2022-08-08T20:19:33.535Z,19.84
2022-08-08T20:22:13.046Z,20.10
2022-08-08T20:24:48.542Z,20.02
2022-08-08T20:27:19.907Z,20.02
2022-08-08T20:29:55.894Z,20.03
2022-08-08T20:32:29.642Z,19.55
2022-08-08T20:35:00.724Z,19.62
2022-08-08T20:37:46.960Z,19.68
2022-08-08T20:40:17.301Z,19.36
2022-08-08T20:42:54.853Z,19.61
2022-08-08T20:45:55.069Z,19.44
2022-08-08T20:48:09.504Z,19.15
2022-08-08T20:50:36.889Z,18.33
2022-08-08T20:53:10.864Z,19.04
2022-08-08T20:55:45.286Z,19.18
2022-08-08T20:58:23.160Z,18.83
2022-08-08T21:00:50.725Z,19.05
2022-08-08T21:03:17.630Z,19.02
2022-08-08T21:05:49.319Z,19.24
2022-08-08T21:08:36.860Z,19.34
2022-08-08T21:11:14.137Z,19.19
2022-08-08T21:13:43.545Z,19.25
2022-08-08T21:16:20.315Z,19.21
2022-08-08T21:18:48.032Z,19.20
2022-08-08T21:21:19.803Z,19.04
2022-08-08T21:24:09.308Z,19.16
2022-08-08T21:26:46.222Z,19.11
2022-08-08T21:29:20.072Z,19.07
2022-08-08T21:31:58.537Z,19.07
2022-08-08T21:34:29.973Z,18.98
2022-08-08T21:36:58.315Z,18.78
2022-08-08T21:39:41.411Z,18.80
2022-08-08T21:42:12.506Z,18.65
2022-08-08T21:44:58.692Z,18.81
2022-08-08T21:48:04.362Z,18.82
2022-08-08T21:50:15.412Z,18.78
2022-08-08T21:54:35.830Z,18.71
2022-08-08T21:56:19.856Z,18.69
2022-08-08T21:58:17.260Z,18.79
2022-08-08T22:00:44.078Z,18.76
2022-08-08T22:03:17.518Z,18.69
2022-08-08T22:05:45.903Z,18.82
2022-08-08T22:08:15.763Z,18.70
2022-08-08T22:10:52.261Z,18.58
2022-08-08T22:13:21.841Z,18.69
2022-08-08T22:15:59.213Z,18.80
2022-08-08T22:18:29.690Z,18.80
2022-08-08T22:21:08.284Z,18.72
2022-08-08T22:23:50.568Z,18.64
2022-08-08T22:26:29.877Z,18.21
2022-08-08T22:29:13.942Z,18.49
2022-08-08T22:32:01.409Z,18.66
2022-08-08T22:34:29.927Z,18.67
2022-08-08T22:36:56.740Z,18.63
2022-08-08T22:39:23.568Z,18.44
2022-08-08T22:42:10.104Z,18.39
2022-08-08T22:44:37.849Z,18.08
2022-08-08T22:47:17.760Z,18.02
2022-08-08T22:49:45.205Z,18.10
2022-08-08T22:52:26.123Z,18.06
2022-08-08T22:55:05.107Z,18.22
2022-08-08T22:57:44.462Z,18.27
2022-08-08T23:00:16.879Z,18.16
2022-08-08T23:02:50.410Z,18.27
2022-08-08T23:05:21.414Z,18.19
2022-08-08T23:07:56.888Z,18.23
2022-08-08T23:10:25.272Z,18.22
2022-08-08T23:12:54.266Z,18.15
2022-08-08T23:16:38.762Z,18.12
2022-08-08T23:18:11.488Z,17.99
2022-08-08T23:20:41.214Z,17.90
2022-08-08T23:23:10.399Z,17.75
2022-08-08T23:25:48.074Z,17.90
2022-08-08T23:28:15.787Z,17.90
2022-08-08T23:30:46.139Z,17.68
2022-08-08T23:33:19.142Z,17.73
2022-08-08T23:36:06.683Z,17.71
2022-08-08T23:38:35.770Z,17.45
2022-08-08T23:41:12.239Z,17.55
2022-08-08T23:43:49.439Z,17.57
2022-08-08T23:49:02.103Z,17.60
2022-08-08T23:49:18.481Z,17.55
2022-08-08T23:52:04.486Z,17.50
2022-08-08T23:54:42.126Z,17.37
2022-08-08T23:57:26.805Z,17.35
